Time;durP1;ratioP1;P1;durP2;ratioP2;P2;SDS_P1;SDS_P2;PMS_P1;PMS_P2;Temp;Humidity;BMP_temperature;BMP_pressure;BME280_temperature;BME280_humidity;BME280_pressure;Samples;Min_cycle;Max_cycle;Signal;HPM_P1;HPM_P2
2023/06/30 00:07:54;;;;;;;2.75;2.08;;;21.80;46.10;;;;;;6187792;23;20166;-73
2023/06/30 00:11:23;;;;;;;3.63;2.60;;;21.80;46.10;;;;;;6187433;23;20052;-73
2023/06/30 00:14:31;;;;;;;4.50;2.80;;;21.80;46.40;;;;;;6186566;23;20008;-73
2023/06/30 00:17:01;;;;;;;4.55;2.70;;;21.80;46.60;;;;;;6186714;23;19993;-74
2023/06/30 00:19:33;;;;;;;5.50;2.80;;;21.70;47.40;;;;;;6160888;23;20001;-73
2023/06/30 00:22:40;;;;;;;3.88;2.63;;;21.70;47.20;;;;;;6161021;23;20013;-74
2023/06/30 00:25:17;;;;;;;5.57;2.53;;;21.60;46.80;;;;;;6140730;23;20032;-74
2023/06/30 00:27:44;;;;;;;3.75;2.83;;;21.60;47.10;;;;;;6160276;23;20052;-74
2023/06/30 00:30:10;;;;;;;6.43;2.58;;;21.60;47.80;;;;;;6160614;23;20001;-76
2023/06/30 00:36:29;;;;;;;3.15;2.35;;;21.50;48.00;;;;;;6188229;23;20001;-73
2023/06/30 00:49:02;;;;;;;3.90;2.72;;;21.40;48.20;;;;;;6186907;23;20000;-74
2023/06/30 00:55:50;;;;;;;4.30;1.92;;;21.30;48.00;;;;;;6187015;23;20001;-73
2023/06/30 01:02:19;;;;;;;3.60;2.33;;;21.30;48.10;;;;;;6187182;23;20088;-77
2023/06/30 01:05:11;;;;;;;3.83;2.20;;;21.30;48.60;;;;;;6160418;23;19997;-73
2023/06/30 01:08:23;;;;;;;4.30;2.50;;;21.30;48.40;;;;;;6188220;23;20001;-74
2023/06/30 01:11:48;;;;;;;3.85;2.58;;;21.20;48.40;;;;;;6095155;23;20451;-73
2023/06/30 01:18:41;;;;;;;3.55;2.10;;;21.30;49.00;;;;;;6187330;23;20000;-74
2023/06/30 01:22:05;;;;;;;4.43;2.60;;;21.30;49.20;;;;;;6185387;23;20004;-73
2023/06/30 01:25:11;;;;;;;4.80;2.67;;;21.40;49.30;;;;;;6166772;23;20001;-74
2023/06/30 01:28:39;;;;;;;5.90;2.65;;;21.40;49.40;;;;;;6185918;23;20414;-73
2023/06/30 01:38:43;;;;;;;3.08;2.30;;;21.60;49.10;;;;;;6186976;23;20035;-73
2023/06/30 01:42:07;;;;;;;3.97;2.38;;;21.70;49.00;;;;;;6186866;23;20035;-73
2023/06/30 01:45:12;;;;;;;2.53;2.17;;;21.70;48.90;;;;;;6187001;23;20004;-73
2023/06/30 01:48:33;;;;;;;2.88;2.30;;;21.70;48.70;;;;;;6185224;23;20001;-74
2023/06/30 01:51:36;;;;;;;4.65;2.13;;;21.80;48.60;;;;;;6148213;23;20005;-73
2023/06/30 01:54:57;;;;;;;5.15;2.63;;;21.80;49.10;;;;;;6186752;23;20310;-73
2023/06/30 01:58:23;;;;;;;3.15;2.38;;;21.70;49.20;;;;;;6160906;23;20001;-74
2023/06/30 02:05:00;;;;;;;3.97;2.67;;;21.80;49.00;;;;;;6187086;23;19997;-72
2023/06/30 02:08:23;;;;;;;3.78;2.65;;;21.80;49.00;;;;;;6186907;23;20000;-72
2023/06/30 02:11:48;;;;;;;4.55;2.60;;;21.80;49.00;;;;;;6186927;23;19993;-72
2023/06/30 02:15:12;;;;;;;3.53;2.42;;;21.70;48.90;;;;;;6161713;23;20084;-72
2023/06/30 02:18:04;;;;;;;5.35;2.67;;;21.70;49.20;;;;;;6186318;23;20081;-74
2023/06/30 02:21:01;;;;;;;3.97;2.65;;;21.70;49.90;;;;;;6187008;23;20032;-73
2023/06/30 02:24:25;;;;;;;4.20;2.55;;;21.70;49.40;;;;;;6160265;23;20082;-73
2023/06/30 02:27:34;;;;;;;7.50;2.78;;;21.70;49.30;;;;;;6160279;23;20012;-73
2023/06/30 02:33:43;;;;;;;4.88;2.83;;;21.70;49.80;;;;;;6182748;23;20360;-73
2023/06/30 02:37:07;;;;;;;3.00;2.67;;;21.70;50.00;;;;;;6187130;23;19997;-74
2023/06/30 02:53:08;;;;;;;3.92;2.50;;;21.70;49.70;;;;;;6187562;23;20001;-73
2023/06/30 02:59:40;;;;;;;3.95;2.80;;;21.70;49.50;;;;;;6186227;23;19997;-73
2023/06/30 03:02:50;;;;;;;3.50;2.17;;;21.60;49.40;;;;;;6185893;23;20357;-73
2023/06/30 03:09:00;;;;;;;3.55;2.50;;;21.50;49.60;;;;;;6187244;23;20456;-73
2023/06/30 03:12:24;;;;;;;3.20;2.42;;;21.50;49.90;;;;;;6160250;23;19997;-73
2023/06/30 03:15:28;;;;;;;3.72;2.20;;;21.40;49.50;;;;;;6152521;23;20060;-73
2023/06/30 03:24:57;;;;;;;3.42;2.53;;;21.30;50.50;;;;;;6186954;23;20000;-73
2023/06/30 03:35:12;;;;;;;5.20;2.28;;;21.20;50.50;;;;;;6187520;23;20024;-73
2023/06/30 03:45:26;;;;;;;3.97;2.38;;;21.20;50.60;;;;;;6188092;23;20430;-73
2023/06/30 03:52:11;;;;;;;3.55;2.22;;;21.30;50.50;;;;;;6188212;23;20306;-73
2023/06/30 03:55:23;;;;;;;3.30;2.33;;;21.30;50.50;;;;;;6188316;23;20046;-73
2023/06/30 04:02:01;;;;;;;3.95;2.20;;;21.40;50.60;;;;;;6188493;23;20001;-73
2023/06/30 04:08:29;;;;;;;2.80;2.47;;;21.50;51.40;;;;;;6188576;23;20005;-73
2023/06/30 04:11:35;;;;;;;3.55;2.55;;;21.60;50.70;;;;;;6161435;23;20079;-74
2023/06/30 04:14:37;;;;;;;3.35;2.30;;;21.70;50.30;;;;;;6161143;23;20078;-73
2023/06/30 04:24:31;;;;;;;6.22;3.05;;;22.00;50.40;;;;;;6188297;23;20000;-73
2023/06/30 04:33:51;;;;;;;8.77;3.30;;;22.30;49.90;;;;;;6186879;23;20005;-73
2023/06/30 04:36:20;;;;;;;5.50;3.38;;;22.30;50.00;;;;;;6161974;23;20357;-73
2023/06/30 04:38:48;;;;;;;9.18;3.63;;;22.30;49.90;;;;;;6186991;23;20001;-76
2023/06/30 04:41:59;;;;;;;7.07;3.08;;;22.20;49.90;;;;;;6160576;23;20417;-73
2023/06/30 04:48:23;;;;;;;6.68;3.45;;;22.20;50.30;;;;;;6182411;23;19997;-73
2023/06/30 04:50:51;;;;;;;7.15;4.28;;;22.20;50.20;;;;;;6187399;23;20025;-73
2023/06/30 04:53:19;;;;;;;7.47;3.03;;;22.20;50.20;;;;;;6187351;23;19993;-74
2023/06/30 04:55:45;;;;;;;6.35;3.22;;;22.20;50.30;;;;;;6161208;23;20007;-73
2023/06/30 04:58:14;;;;;;;4.68;3.28;;;22.20;50.30;;;;;;6187211;23;19989;-73
2023/06/30 05:00:43;;;;;;;4.43;3.03;;;22.20;50.40;;;;;;6160510;23;19997;-73
2023/06/30 05:03:08;;;;;;;6.15;3.45;;;22.20;50.30;;;;;;6187680;23;20021;-67
2023/06/30 05:05:37;;;;;;;5.80;3.05;;;22.30;50.30;;;;;;6187841;23;20417;-73
2023/06/30 05:08:07;;;;;;;8.82;3.55;;;22.30;50.20;;;;;;6159488;23;20413;-73
2023/06/30 05:10:40;;;;;;;7.47;3.00;;;22.40;50.20;;;;;;6185374;23;19989;-73
2023/06/30 05:13:08;;;;;;;6.35;3.20;;;22.50;50.20;;;;;;6185513;23;20004;-74
2023/06/30 05:15:37;;;;;;;4.00;2.67;;;22.60;50.20;;;;;;6185323;23;20414;-73
2023/06/30 05:18:15;;;;;;;5.38;3.33;;;22.60;50.10;;;;;;6185602;23;20000;-74
2023/06/30 05:20:46;;;;;;;4.50;3.30;;;22.80;50.00;;;;;;6185647;23;19989;-73
2023/06/30 05:23:12;;;;;;;7.57;4.47;;;23.00;49.60;;;;;;6185467;23;20073;-71
2023/06/30 05:25:38;;;;;;;12.77;5.85;;;23.10;49.10;;;;;;6159386;23;20008;-73
2023/06/30 05:28:08;;;;;;;10.55;3.65;;;23.20;48.80;;;;;;6159504;23;19993;-73
2023/06/30 05:30:38;;;;;;;7.57;4.03;;;23.30;48.60;;;;;;6185504;23;19993;-72
2023/06/30 05:33:14;;;;;;;12.18;4.72;;;23.30;48.30;;;;;;6159306;23;20048;-72
2023/06/30 05:35:44;;;;;;;5.35;3.60;;;23.40;48.10;;;;;;6159194;23;19997;-73
2023/06/30 05:38:17;;;;;;;6.07;3.80;;;23.40;48.00;;;;;;6185942;23;20017;-72
2023/06/30 05:40:46;;;;;;;10.65;3.83;;;23.40;47.90;;;;;;6159035;23;20039;-72
2023/06/30 05:43:19;;;;;;;6.25;3.50;;;23.50;47.80;;;;;;6159207;23;19997;-73
2023/06/30 05:45:49;;;;;;;5.57;3.58;;;23.50;47.80;;;;;;6185154;23;20017;-72
2023/06/30 05:48:29;;;;;;;8.95;3.75;;;23.60;47.80;;;;;;6185447;23;19993;-73
2023/06/30 05:50:59;;;;;;;8.35;4.05;;;23.60;47.70;;;;;;6185545;23;19993;-73
2023/06/30 05:53:27;;;;;;;8.15;4.13;;;23.60;47.60;;;;;;6185302;23;20056;-73
2023/06/30 05:55:55;;;;;;;4.43;3.42;;;23.70;47.50;;;;;;6185115;23;19993;-72
2023/06/30 05:58:23;;;;;;;5.40;3.60;;;23.70;47.20;;;;;;6158762;23;20004;-73
2023/06/30 06:00:49;;;;;;;6.18;3.35;;;23.70;46.90;;;;;;6184531;23;19997;-72
2023/06/30 06:03:17;;;;;;;7.50;3.80;;;23.70;46.80;;;;;;6158819;23;19993;-72
2023/06/30 06:05:43;;;;;;;7.00;3.42;;;23.70;46.70;;;;;;6158705;23;20103;-72
2023/06/30 06:08:12;;;;;;;4.95;3.55;;;23.80;46.70;;;;;;6185150;23;19993;-73
2023/06/30 06:10:46;;;;;;;7.20;4.38;;;23.90;46.70;;;;;;6158489;23;19997;-73
2023/06/30 06:13:29;;;;;;;12.32;3.60;;;23.90;46.50;;;;;;6184756;23;20005;-72
2023/06/30 06:16:03;;;;;;;6.50;3.80;;;24.00;46.40;;;;;;6184856;23;19993;-72
2023/06/30 06:18:37;;;;;;;6.05;3.50;;;24.00;46.30;;;;;;6158721;23;20410;-72
2023/06/30 06:21:09;;;;;;;7.45;3.20;;;24.00;46.00;;;;;;6185038;23;19989;-72
2023/06/30 06:23:37;;;;;;;5.10;3.65;;;24.10;45.80;;;;;;6184720;23;19989;-73
2023/06/30 06:26:08;;;;;;;5.07;3.40;;;24.10;45.80;;;;;;6184971;23;20001;-72
2023/06/30 06:28:33;;;;;;;5.35;3.05;;;24.20;45.80;;;;;;6185034;23;20306;-73
2023/06/30 06:31:04;;;;;;;6.78;3.33;;;24.20;45.50;;;;;;6184475;23;19992;-73
2023/06/30 06:33:38;;;;;;;7.75;3.97;;;24.30;45.80;;;;;;6184897;23;19997;-73
2023/06/30 06:36:06;;;;;;;7.50;3.22;;;24.40;45.90;;;;;;6158715;23;20004;-73
2023/06/30 06:38:34;;;;;;;6.72;3.03;;;24.40;45.80;;;;;;6184383;23;19997;-74
2023/06/30 06:41:05;;;;;;;9.50;3.08;;;24.50;45.60;;;;;;6184950;23;20004;-73
2023/06/30 06:43:36;;;;;;;6.38;3.40;;;24.50;45.50;;;;;;6184917;23;20000;-73
2023/06/30 06:46:04;;;;;;;5.22;3.08;;;24.60;45.50;;;;;;6184545;23;20000;-73
2023/06/30 06:48:30;;;;;;;5.53;3.30;;;24.70;45.50;;;;;;6184703;23;20111;-74
2023/06/30 06:51:04;;;;;;;5.28;3.42;;;24.80;45.30;;;;;;6184810;23;19993;-73
2023/06/30 06:53:34;;;;;;;18.48;4.63;;;24.80;45.20;;;;;;6184763;23;20309;-73
2023/06/30 06:56:02;;;;;;;8.52;4.28;;;24.90;45.40;;;;;;6184781;23;20001;-73
2023/06/30 06:58:36;;;;;;;11.30;4.78;;;24.90;45.20;;;;;;6184848;23;20072;-73
2023/06/30 07:01:04;;;;;;;9.90;4.63;;;25.00;45.00;;;;;;6184743;23;20003;-73
2023/06/30 07:03:35;;;;;;;12.98;6.88;;;25.10;45.00;;;;;;6184658;23;19989;-73
2023/06/30 07:06:06;;;;;;;11.02;6.22;;;25.10;44.50;;;;;;6158293;23;19993;-73
2023/06/30 07:08:35;;;;;;;15.48;6.07;;;25.20;44.60;;;;;;6184449;23;20070;-74
2023/06/30 07:11:05;;;;;;;17.20;7.88;;;25.30;44.30;;;;;;6184574;23;20001;-74
2023/06/30 07:13:38;;;;;;;13.57;6.63;;;25.30;44.20;;;;;;6184327;23;19997;-75
2023/06/30 07:16:03;;;;;;;13.32;7.20;;;25.40;44.20;;;;;;6185073;23;19997;-74
2023/06/30 07:18:36;;;;;;;14.32;7.30;;;25.50;44.10;;;;;;6184362;23;20330;-74
2023/06/30 07:21:05;;;;;;;18.25;7.03;;;25.50;43.90;;;;;;6158108;23;20028;-74
2023/06/30 07:23:35;;;;;;;16.63;7.72;;;25.60;43.60;;;;;;6159913;23;20029;-73
2023/06/30 07:26:05;;;;;;;14.35;6.90;;;25.70;43.60;;;;;;6184467;23;20020;-74
2023/06/30 07:28:36;;;;;;;20.00;7.47;;;25.70;43.70;;;;;;6158200;23;20143;-74
2023/06/30 07:31:07;;;;;;;20.35;7.13;;;25.80;43.40;;;;;;6184325;23;20016;-74
2023/06/30 07:33:35;;;;;;;16.17;6.38;;;25.80;43.20;;;;;;6184900;23;20017;-74
2023/06/30 07:36:03;;;;;;;20.40;7.47;;;25.90;43.20;;;;;;6184560;23;19994;-73
2023/06/30 07:38:32;;;;;;;13.02;6.63;;;26.00;42.90;;;;;;6184646;23;20055;-73
2023/06/30 07:41:00;;;;;;;18.65;7.68;;;26.10;43.00;;;;;;6184548;23;20020;-74
2023/06/30 07:43:30;;;;;;;17.30;7.70;;;26.10;42.70;;;;;;6184481;23;19998;-74
2023/06/30 07:45:58;;;;;;;17.95;7.18;;;26.20;42.00;;;;;;6184211;23;20250;-73
2023/06/30 07:48:27;;;;;;;19.92;7.22;;;26.20;42.00;;;;;;6184183;23;20025;-74
2023/06/30 07:50:55;;;;;;;14.27;7.00;;;26.30;42.30;;;;;;6184535;23;20064;-74
2023/06/30 07:53:26;;;;;;;14.75;6.80;;;26.30;42.00;;;;;;6184151;23;19997;-73
2023/06/30 07:55:54;;;;;;;14.52;6.57;;;26.40;41.50;;;;;;6184134;23;20034;-73
2023/06/30 07:58:30;;;;;;;20.77;7.18;;;26.50;41.60;;;;;;6184314;23;20056;-74
2023/06/30 08:00:58;;;;;;;13.07;6.38;;;26.50;41.00;;;;;;6184338;23;20390;-74
2023/06/30 08:03:27;;;;;;;12.32;5.45;;;26.60;41.30;;;;;;6184796;23;20414;-74
2023/06/30 08:05:56;;;;;;;12.80;5.32;;;26.70;41.40;;;;;;6158057;23;20001;-73
2023/06/30 08:08:30;;;;;;;19.17;6.97;;;26.70;41.10;;;;;;6184402;23;19993;-73
2023/06/30 08:10:58;;;;;;;12.25;4.78;;;26.70;40.10;;;;;;6158005;23;20283;-73
2023/06/30 08:13:26;;;;;;;8.82;4.95;;;26.90;40.90;;;;;;6184223;23;20051;-73
2023/06/30 08:15:57;;;;;;;13.30;5.35;;;26.90;40.70;;;;;;6184084;23;19990;-73
2023/06/30 08:18:26;;;;;;;12.80;5.18;;;27.00;40.40;;;;;;6158068;23;20414;-74
2023/06/30 08:20:58;;;;;;;12.18;5.82;;;27.10;40.50;;;;;;6157878;23;20077;-73
2023/06/30 08:23:32;;;;;;;13.23;5.75;;;27.20;39.30;;;;;;6158402;23;20008;-73
2023/06/30 08:26:04;;;;;;;12.32;5.07;;;27.30;39.30;;;;;;6186506;23;20297;-73
2023/06/30 08:28:35;;;;;;;12.48;5.53;;;27.40;39.60;;;;;;6160282;23;20076;-72
2023/06/30 08:31:01;;;;;;;15.77;5.07;;;27.50;39.90;;;;;;6185792;23;19989;-72
2023/06/30 08:33:32;;;;;;;18.80;6.00;;;27.50;40.00;;;;;;6185908;23;19999;-72
2023/06/30 08:36:01;;;;;;;15.73;4.72;;;27.70;39.30;;;;;;6159743;23;20006;-72
2023/06/30 08:38:29;;;;;;;17.60;5.63;;;27.70;39.60;;;;;;6185847;23;20410;-72
2023/06/30 08:40:58;;;;;;;19.92;5.40;;;27.80;39.30;;;;;;6160535;23;20418;-73
2023/06/30 08:43:29;;;;;;;12.35;5.47;;;27.90;39.20;;;;;;6185420;23;19996;-72
2023/06/30 08:45:56;;;;;;;14.25;5.60;;;28.00;39.00;;;;;;6159691;23;19997;-72
2023/06/30 08:48:26;;;;;;;9.90;4.95;;;28.00;38.50;;;;;;6185978;23;20000;-73
2023/06/30 08:50:58;;;;;;;10.73;4.85;;;28.10;38.40;;;;;;6185598;23;20000;-73
2023/06/30 08:53:27;;;;;;;9.77;4.70;;;28.20;38.10;;;;;;6185512;23;20005;-73
2023/06/30 08:55:56;;;;;;;10.30;5.18;;;28.30;38.00;;;;;;6185967;23;19997;-73
2023/06/30 08:58:25;;;;;;;10.65;5.20;;;28.40;37.70;;;;;;6159195;23;20001;-72
2023/06/30 09:00:57;;;;;;;13.25;4.82;;;28.50;37.70;;;;;;6186499;23;19989;-73
2023/06/30 09:03:26;;;;;;;11.20;4.72;;;28.60;37.70;;;;;;6185812;23;20456;-73
2023/06/30 09:05:58;;;;;;;13.98;4.43;;;28.60;37.10;;;;;;6159382;23;20024;-73
2023/06/30 09:08:37;;;;;;;12.15;3.97;;;28.70;37.20;;;;;;6159501;23;20001;-73
2023/06/30 09:11:07;;;;;;;8.85;4.53;;;28.80;36.70;;;;;;6185490;23;19993;-73
2023/06/30 09:13:41;;;;;;;10.10;4.07;;;28.80;36.40;;;;;;6185403;23;19990;-73
2023/06/30 09:16:15;;;;;;;5.53;3.15;;;28.90;35.60;;;;;;6159409;23;20001;-73
2023/06/30 09:18:44;;;;;;;7.63;3.53;;;28.90;35.20;;;;;;6186175;23;20440;-73
2023/06/30 09:21:13;;;;;;;12.48;4.15;;;29.00;35.30;;;;;;6185519;23;20024;-72
2023/06/30 09:23:44;;;;;;;8.93;3.92;;;29.00;35.10;;;;;;6185415;23;20048;-72
2023/06/30 09:26:18;;;;;;;8.30;4.15;;;29.00;35.00;;;;;;6159074;23;20004;-73
2023/06/30 09:28:46;;;;;;;9.80;3.53;;;29.00;35.30;;;;;;6185514;23;20076;-73
2023/06/30 09:31:14;;;;;;;8.00;3.58;;;29.10;35.30;;;;;;6159353;23;20301;-73
2023/06/30 09:33:49;;;;;;;13.35;4.05;;;29.10;34.70;;;;;;6185566;23;19997;-74
2023/06/30 09:36:20;;;;;;;7.78;4.25;;;29.10;34.30;;;;;;6185528;23;20079;-74
2023/06/30 09:38:48;;;;;;;9.77;4.07;;;29.20;34.80;;;;;;6185510;23;19993;-73
2023/06/30 09:41:23;;;;;;;11.63;4.20;;;29.20;35.00;;;;;;6158902;23;20028;-73
2023/06/30 09:43:59;;;;;;;5.32;3.03;;;29.30;34.30;;;;;;6185256;23;20309;-74
2023/06/30 09:46:32;;;;;;;9.32;3.50;;;29.40;33.90;;;;;;6185834;23;20430;-73
2023/06/30 09:49:04;;;;;;;;;;;29.50;33.80;;;;;;6185574;23;19997;-73
2023/06/30 09:51:33;;;;;;;6.78;3.47;;;29.60;35.20;;;;;;6184991;23;19904;-73
2023/06/30 09:54:01;;;;;;;7.90;3.47;;;29.70;33.10;;;;;;6159886;23;20000;-73
2023/06/30 09:56:29;;;;;;;10.70;3.63;;;29.80;33.30;;;;;;6185424;23;19998;-73
2023/06/30 09:59:08;;;;;;;6.25;3.42;;;29.90;32.70;;;;;;6158997;23;20008;-73
2023/06/30 10:01:34;;;;;;;7.97;2.97;;;30.00;32.40;;;;;;6158988;23;20402;-74
2023/06/30 10:04:11;;;;;;;7.80;3.50;;;30.10;32.20;;;;;;6184941;23;20039;-74
2023/06/30 10:06:39;;;;;;;5.75;2.88;;;30.20;32.00;;;;;;6186369;23;20301;-73
2023/06/30 10:09:11;;;;;;;5.78;2.97;;;30.20;32.30;;;;;;6184984;23;20390;-73
2023/06/30 10:11:38;;;;;;;3.28;2.53;;;30.30;32.30;;;;;;6158784;23;20012;-74
2023/06/30 10:14:13;;;;;;;5.28;2.53;;;30.40;32.10;;;;;;6185680;23;19993;-74
2023/06/30 10:16:52;;;;;;;7.60;2.80;;;30.50;31.30;;;;;;6185168;23;20056;-73
2023/06/30 10:19:21;;;;;;;6.10;2.72;;;30.50;31.00;;;;;;6158391;23;20357;-73
2023/06/30 10:21:50;;;;;;;5.93;3.13;;;30.60;31.00;;;;;;6158976;23;20138;-73
2023/06/30 10:24:25;;;;;;;6.20;3.10;;;30.60;30.70;;;;;;6184647;23;20000;-73
2023/06/30 10:26:56;;;;;;;5.65;3.22;;;30.70;30.70;;;;;;6184941;23;19996;-73
2023/06/30 10:29:22;;;;;;;5.65;3.10;;;30.70;30.70;;;;;;6185174;23;19993;-74
2023/06/30 10:31:51;;;;;;;5.18;2.97;;;30.80;30.90;;;;;;6184912;23;20400;-73
2023/06/30 10:34:20;;;;;;;5.18;2.88;;;30.90;31.00;;;;;;6158512;23;19994;-73
2023/06/30 10:36:49;;;;;;;6.90;3.03;;;31.10;29.80;;;;;;6185068;23;19993;-74
2023/06/30 10:39:17;;;;;;;7.78;3.00;;;31.20;30.60;;;;;;6184329;23;20366;-73
2023/06/30 10:41:48;;;;;;;6.55;3.53;;;31.40;30.70;;;;;;6184937;23;20004;-74
2023/06/30 10:44:19;;;;;;;5.88;3.13;;;31.50;30.40;;;;;;6158168;23;20007;-73
2023/06/30 10:47:01;;;;;;;5.88;3.10;;;31.80;30.40;;;;;;6158730;23;20467;-73
2023/06/30 10:49:29;;;;;;;6.75;3.90;;;32.10;29.10;;;;;;6184812;23;20019;-73
2023/06/30 10:51:58;;;;;;;7.22;3.50;;;32.30;28.10;;;;;;6184317;23;20025;-73
2023/06/30 10:54:31;;;;;;;5.28;3.40;;;32.70;28.90;;;;;;6158454;23;20019;-73
2023/06/30 10:57:14;;;;;;;4.88;3.10;;;33.00;28.60;;;;;;6158640;23;19997;-72
2023/06/30 11:00:14;;;;;;;4.32;3.10;;;33.30;28.10;;;;;;6158260;23;20008;-72
2023/06/30 11:02:50;;;;;;;6.30;2.58;;;33.60;27.70;;;;;;6170216;23;20011;-72
2023/06/30 11:05:23;;;;;;;7.22;2.85;;;33.90;27.40;;;;;;6184808;23;19997;-72
2023/06/30 11:07:56;;;;;;;6.78;3.30;;;34.10;27.30;;;;;;6184234;23;20008;-72
2023/06/30 11:10:37;;;;;;;6.07;2.90;;;34.30;26.90;;;;;;6184966;23;20001;-73
2023/06/30 11:13:11;;;;;;;7.28;3.38;;;34.40;26.30;;;;;;6184639;23;20468;-73
2023/06/30 11:15:47;;;;;;;8.80;3.03;;;34.50;26.40;;;;;;6184710;23;19997;-73
2023/06/30 11:18:23;;;;;;;5.35;3.25;;;34.60;26.30;;;;;;6184243;23;20324;-73
2023/06/30 11:21:01;;;;;;;4.32;2.88;;;34.60;25.70;;;;;;6184511;23;19997;-73
2023/06/30 11:23:33;;;;;;;7.85;2.88;;;34.70;25.70;;;;;;6184604;23;19989;-73
2023/06/30 11:26:24;;;;;;;3.83;2.83;;;34.80;25.70;;;;;;6184391;23;20080;-72
2023/06/30 11:28:58;;;;;;;4.22;2.63;;;34.80;25.90;;;;;;6184587;23;19996;-73
2023/06/30 11:31:35;;;;;;;5.43;3.22;;;34.90;25.40;;;;;;6184728;23;20314;-74
2023/06/30 11:34:06;;;;;;;7.70;3.10;;;35.00;25.70;;;;;;6184768;23;19997;-73
2023/06/30 11:36:35;;;;;;;5.57;3.03;;;35.10;24.60;;;;;;6184371;23;20068;-72
2023/06/30 11:39:03;;;;;;;4.95;3.22;;;35.30;24.80;;;;;;6184113;23;20487;-73
2023/06/30 11:41:36;;;;;;;5.82;2.78;;;35.40;24.10;;;;;;6157952;23;20477;-72
2023/06/30 11:44:02;;;;;;;5.03;3.20;;;35.50;25.00;;;;;;6184645;23;20000;-73
2023/06/30 11:46:35;;;;;;;10.20;3.05;;;35.60;24.90;;;;;;6184399;23;19997;-73
2023/06/30 11:49:01;;;;;;;5.00;2.92;;;35.70;24.90;;;;;;6184062;23;20418;-73
2023/06/30 11:51:36;;;;;;;8.07;3.35;;;35.80;25.10;;;;;;6184304;23;20008;-73
2023/06/30 11:54:04;;;;;;;5.03;2.83;;;35.80;24.30;;;;;;6184597;23;19989;-72
2023/06/30 11:56:34;;;;;;;6.22;3.03;;;35.80;23.60;;;;;;6184367;23;19990;-73
2023/06/30 11:59:03;;;;;;;7.32;2.65;;;35.80;22.90;;;;;;6185505;23;20283;-72
2023/06/30 12:01:31;;;;;;;4.85;3.05;;;35.80;24.10;;;;;;6159941;23;20059;-73
2023/06/30 12:04:01;;;;;;;6.10;3.03;;;35.80;24.40;;;;;;6186147;23;19997;-74
2023/06/30 12:06:32;;;;;;;5.28;3.00;;;35.80;24.50;;;;;;6186316;23;20270;-73
2023/06/30 12:09:00;;;;;;;6.07;2.22;;;35.80;23.80;;;;;;6186271;23;20006;-73
2023/06/30 12:11:36;;;;;;;7.45;2.70;;;35.80;23.90;;;;;;6185825;23;20001;-73
2023/06/30 12:14:14;;;;;;;8.15;2.80;;;35.80;23.80;;;;;;6186429;23;20056;-73
2023/06/30 12:16:52;;;;;;;3.80;2.40;;;35.80;24.10;;;;;;6185965;23;20429;-73
2023/06/30 12:19:27;;;;;;;4.88;2.70;;;35.90;24.40;;;;;;6185810;23;19997;-74
2023/06/30 12:22:03;;;;;;;4.20;2.63;;;35.90;23.70;;;;;;6186551;23;20057;-73
2023/06/30 12:24:38;;;;;;;8.63;3.38;;;36.00;23.80;;;;;;6186620;23;20031;-72
2023/06/30 12:27:07;;;;;;;4.45;2.60;;;36.00;23.30;;;;;;6186403;23;20000;-73
2023/06/30 12:29:36;;;;;;;7.57;2.40;;;36.00;22.90;;;;;;6159838;23;20447;-72
2023/06/30 12:32:13;;;;;;;4.28;2.40;;;36.10;23.40;;;;;;6185892;23;20001;-72
2023/06/30 12:34:41;;;;;;;4.22;2.80;;;36.10;23.50;;;;;;6185805;23;20003;-73
2023/06/30 12:37:09;;;;;;;9.20;3.03;;;36.10;23.20;;;;;;6186243;23;20064;-73
2023/06/30 12:39:35;;;;;;;4.57;2.70;;;36.10;23.20;;;;;;6159519;23;20008;-73
2023/06/30 12:42:01;;;;;;;6.47;2.83;;;36.10;23.20;;;;;;6160077;23;20001;-73
2023/06/30 12:44:32;;;;;;;4.32;2.80;;;36.00;22.80;;;;;;6186158;23;20016;-73
2023/06/30 12:47:06;;;;;;;5.05;2.67;;;35.90;22.80;;;;;;6186201;23;19994;-73
2023/06/30 12:49:37;;;;;;;4.82;2.58;;;35.90;23.40;;;;;;6159712;23;20048;-73
2023/06/30 12:52:03;;;;;;;3.72;2.38;;;35.80;23.50;;;;;;6186046;23;20028;-71
2023/06/30 12:54:34;;;;;;;3.70;2.50;;;35.80;23.50;;;;;;6186496;23;20341;-72
2023/06/30 12:57:03;;;;;;;5.10;2.83;;;35.80;23.40;;;;;;6159494;23;20003;-72
2023/06/30 12:59:31;;;;;;;5.60;2.55;;;35.70;23.80;;;;;;6159542;23;20011;-73
2023/06/30 13:01:57;;;;;;;4.40;2.75;;;35.60;24.60;;;;;;6185586;23;20004;-73
2023/06/30 13:04:27;;;;;;;8.05;3.05;;;35.50;25.10;;;;;;6185596;23;20418;-73
2023/06/30 13:06:58;;;;;;;4.63;2.40;;;35.40;25.60;;;;;;6159497;23;20003;-72
2023/06/30 13:09:32;;;;;;;5.35;2.90;;;35.30;26.00;;;;;;6188283;23;19989;-72
2023/06/30 13:12:00;;;;;;;;;;;35.10;26.40;;;;;;6186456;23;20072;-73
2023/06/30 13:14:36;;;;;;;11.13;4.47;;;35.10;26.20;;;;;;6185740;23;19896;-73
2023/06/30 13:17:08;;;;;;;3.55;2.40;;;34.90;26.60;;;;;;6186052;23;19995;-73
2023/06/30 13:19:38;;;;;;;9.82;3.35;;;34.90;26.70;;;;;;6185682;23;20402;-73
2023/06/30 13:22:07;;;;;;;5.25;3.35;;;34.80;27.00;;;;;;6159232;23;20001;-71
2023/06/30 13:24:36;;;;;;;4.25;2.55;;;34.70;27.00;;;;;;6159417;23;20001;-72
2023/06/30 13:27:05;;;;;;;3.35;2.50;;;34.60;27.00;;;;;;6159379;23;20202;-74
2023/06/30 13:29:36;;;;;;;3.83;2.47;;;34.60;26.90;;;;;;6185539;23;20048;-73
2023/06/30 13:32:05;;;;;;;3.08;2.33;;;34.60;26.70;;;;;;6159111;23;20009;-73
2023/06/30 13:34:33;;;;;;;10.07;3.72;;;34.60;26.40;;;;;;6185166;23;20279;-73
2023/06/30 13:37:02;;;;;;;5.43;2.63;;;34.60;26.20;;;;;;6185381;23;20035;-73
2023/06/30 13:39:30;;;;;;;3.95;2.67;;;34.60;26.10;;;;;;6186475;23;19997;-74
2023/06/30 13:42:01;;;;;;;5.55;2.40;;;34.70;25.60;;;;;;6185263;23;20283;-73
2023/06/30 13:44:30;;;;;;;3.22;2.20;;;34.80;25.60;;;;;;6185547;23;20004;-73
2023/06/30 13:47:02;;;;;;;5.57;2.95;;;34.90;25.80;;;;;;6159102;23;19997;-72
2023/06/30 13:49:38;;;;;;;4.40;2.42;;;35.00;25.50;;;;;;6159092;23;20005;-73
2023/06/30 13:52:14;;;;;;;3.95;2.40;;;35.00;25.00;;;;;;6159239;23;20005;-73
2023/06/30 13:54:48;;;;;;;4.50;2.38;;;35.00;25.00;;;;;;6185527;23;19989;-72
2023/06/30 13:57:16;;;;;;;5.68;2.70;;;35.10;25.40;;;;;;6185421;23;19993;-73
2023/06/30 13:59:48;;;;;;;8.95;2.88;;;35.20;25.40;;;;;;6185413;23;19997;-73
2023/06/30 14:02:16;;;;;;;3.72;2.05;;;35.30;24.50;;;;;;6185764;23;20071;-72
2023/06/30 14:04:47;;;;;;;3.42;2.30;;;35.40;24.70;;;;;;6158945;23;20440;-73
2023/06/30 14:07:16;;;;;;;2.60;2.40;;;35.40;24.80;;;;;;6159070;23;20000;-73
2023/06/30 14:09:44;;;;;;;4.53;2.33;;;35.50;24.60;;;;;;6184946;23;20414;-73
2023/06/30 14:12:14;;;;;;;7.93;2.63;;;35.50;24.70;;;;;;6185179;23;20423;-72
2023/06/30 14:14:43;;;;;;;5.32;2.80;;;35.50;24.30;;;;;;6158808;23;20096;-72
2023/06/30 14:17:13;;;;;;;3.08;2.40;;;35.60;24.50;;;;;;6158771;23;20389;-73
2023/06/30 14:19:45;;;;;;;2.92;2.35;;;35.50;24.40;;;;;;6185178;23;20008;-72
2023/06/30 14:22:13;;;;;;;4.00;2.30;;;35.50;24.60;;;;;;6185524;23;19993;-73
2023/06/30 14:24:43;;;;;;;3.20;2.28;;;35.40;24.80;;;;;;6158494;23;20211;-73
2023/06/30 14:27:14;;;;;;;2.83;2.20;;;35.30;24.80;;;;;;6185287;23;20021;-72
2023/06/30 14:29:42;;;;;;;7.30;2.42;;;35.20;24.90;;;;;;6158779;23;20078;-73
2023/06/30 14:32:16;;;;;;;2.38;2.10;;;35.10;24.80;;;;;;6158833;23;20009;-73
2023/06/30 14:34:44;;;;;;;3.53;2.60;;;35.00;24.90;;;;;;6185036;23;20349;-73
2023/06/30 14:37:13;;;;;;;5.40;2.42;;;34.90;25.10;;;;;;6158782;23;19997;-72
2023/06/30 14:39:44;;;;;;;5.43;2.70;;;34.70;25.20;;;;;;6184891;23;20309;-73
2023/06/30 14:42:12;;;;;;;3.55;2.47;;;34.50;25.50;;;;;;6185115;23;20016;-72
2023/06/30 14:44:43;;;;;;;6.80;2.70;;;34.30;25.80;;;;;;6184743;23;19997;-73
2023/06/30 14:47:16;;;;;;;4.82;3.00;;;34.00;25.90;;;;;;6158599;23;20410;-72
2023/06/30 14:49:46;;;;;;;4.18;2.83;;;33.80;26.20;;;;;;6184680;23;19989;-73
2023/06/30 14:52:17;;;;;;;3.88;2.33;;;33.50;26.30;;;;;;6158765;23;20012;-72
2023/06/30 14:54:48;;;;;;;5.40;2.67;;;33.20;26.60;;;;;;6158567;23;20433;-72
2023/06/30 14:57:19;;;;;;;4.47;2.65;;;32.90;26.80;;;;;;6158612;23;20084;-73
2023/06/30 14:59:44;;;;;;;3.35;2.58;;;32.70;27.10;;;;;;6184521;23;20443;-72
2023/06/30 15:02:13;;;;;;;3.35;2.30;;;32.50;27.20;;;;;;6159254;23;20001;-72
2023/06/30 15:04:41;;;;;;;4.80;2.97;;;32.20;27.50;;;;;;6185320;23;20429;-72
2023/06/30 15:07:12;;;;;;;4.95;3.17;;;32.10;27.90;;;;;;6157824;23;20019;-72
2023/06/30 15:09:41;;;;;;;3.33;2.42;;;31.80;28.10;;;;;;6158429;23;20007;-72
2023/06/30 15:12:15;;;;;;;4.30;3.10;;;31.70;28.40;;;;;;6158193;23;20030;-72
2023/06/30 15:14:49;;;;;;;;;;;31.50;28.50;;;;;;6185407;23;19996;-73
2023/06/30 15:17:17;;;;;;;;;;;31.40;27.90;;;;;;6185241;23;19903;-72
2023/06/30 15:19:45;;;;;;;7.10;2.60;;;31.30;28.00;;;;;;6158264;23;19896;-72
2023/06/30 15:22:13;;;;;;;6.47;3.08;;;31.20;29.00;;;;;;6184580;23;19997;-72
2023/06/30 15:24:42;;;;;;;3.20;2.67;;;31.00;29.20;;;;;;6158070;23;20005;-72
2023/06/30 15:27:14;;;;;;;6.70;2.92;;;30.90;29.40;;;;;;6184147;23;19989;-72